Main page
METAR-TAF:

METAR-TAF

Airports :

Noshahr, Iran

Noshahr Airport

latitude: 36-39-48N, longitude: 051-27-53E, elevation: 0 m

Current weather observation

The report was made 28 minutes ago, at 20:00 UTC
Wind 6 kt from the East
Temperature 15°C
Humidity 94%
Pressure 1015 hPa
Visibility 10 km or more
Scattered clouds at a height of 2000 ft

METAR: OINN 302000Z 09006KT 9999 SCT020 15/14 Q1015

Time: 00:58 (20:28 UTC)


TAF: missing

Weather observations and forecasts of more than 4000 airports (METAR and TAF reports).

The available stations are represented by yellow and red dots on the map.

Hover mouse over dot to see the name of the station.

Then click to see weather observations and forecasts.

To change the map : click on the green buttons with a black cross to zoom in, on the green button with a dash to zoom out, or on the green arrows for adjacent maps.


METAR-TAF: